Time;durP1;ratioP1;P1;durP2;ratioP2;P2;SDS_P1;SDS_P2;PMS_P1;PMS_P2;Temp;Humidity;BMP_temperature;BMP_pressure;BME280_temperature;BME280_humidity;BME280_pressure;Samples;Min_cycle;Max_cycle;Signal;HPM_P1;HPM_P2
2022/10/30 00:00:28;;;;;;;17.95;11.50;;;;;;;;;;4950567;28;20778;-74
2022/10/30 00:02:54;;;;;;;18.08;11.75;;;;;;;;;;4946973;28;20561;-74
2022/10/30 00:05:20;;;;;;;18.60;11.68;;;;;;;;;;4968698;28;20058;-74
2022/10/30 00:07:49;;;;;;;19.00;12.05;;;;;;;;;;4945820;28;20081;-74
2022/10/30 00:10:16;;;;;;;20.75;11.85;;;;;;;;;;4974777;28;23401;-74
2022/10/30 00:12:42;;;;;;;17.85;11.40;;;;;;;;;;4946833;28;21645;-74
2022/10/30 00:15:08;;;;;;;19.08;11.93;;;;;;;;;;4942234;28;20090;-74
2022/10/30 00:17:34;;;;;;;17.52;11.75;;;;;;;;;;4950185;28;20404;-74
2022/10/30 00:20:00;;;;;;;19.42;11.63;;;;;;;;;;4947845;28;20047;-74
2022/10/30 00:22:27;;;;;;;18.05;10.93;;;;;;;;;;4951961;28;20099;-75
2022/10/30 00:24:53;;;;;;;16.08;12.32;;;;;;;;;;4941347;28;20487;-74
2022/10/30 00:27:19;;;;;;;20.50;11.77;;;;;;;;;;4975353;28;20057;-74
2022/10/30 00:29:45;;;;;;;19.55;11.77;;;;;;;;;;4980985;28;20051;-74
2022/10/30 00:32:11;;;;;;;18.80;11.70;;;;;;;;;;4949363;28;20090;-74
2022/10/30 00:34:37;;;;;;;18.10;11.68;;;;;;;;;;4981061;28;20047;-74
2022/10/30 00:37:03;;;;;;;15.65;11.30;;;;;;;;;;4943955;28;20047;-74
2022/10/30 00:39:29;;;;;;;15.90;11.25;;;;;;;;;;4947655;28;20082;-74
2022/10/30 00:41:55;;;;;;;18.83;12.25;;;;;;;;;;4943927;28;20039;-74
2022/10/30 00:44:40;;;;;;;14.55;11.30;;;;;;;;;;4946013;28;20047;-74
2022/10/30 00:47:10;;;;;;;22.85;11.38;;;;;;;;;;4948453;28;20102;-74
2022/10/30 00:49:38;;;;;;;17.60;12.05;;;;;;;;;;4948193;28;20035;-74
2022/10/30 00:52:07;;;;;;;19.63;12.20;;;;;;;;;;4981528;28;20550;-74
2022/10/30 00:54:36;;;;;;;16.65;10.93;;;;;;;;;;4943771;28;20054;-74
2022/10/30 00:57:05;;;;;;;18.20;12.02;;;;;;;;;;4977315;28;20507;-74
2022/10/30 00:59:32;;;;;;;16.70;11.43;;;;;;;;;;4944996;28;20062;-74
2022/10/30 01:01:59;;;;;;;19.80;12.18;;;;;;;;;;4940066;28;20070;-74
2022/10/30 01:04:25;;;;;;;18.50;12.35;;;;;;;;;;4947289;28;20133;-74
2022/10/30 01:06:52;;;;;;;17.13;11.82;;;;;;;;;;4980909;28;20059;-74
2022/10/30 01:09:19;;;;;;;17.73;11.40;;;;;;;;;;4947617;28;20062;-74
2022/10/30 01:11:45;;;;;;;16.95;11.57;;;;;;;;;;4946577;28;20059;-74
2022/10/30 01:14:12;;;;;;;21.13;12.10;;;;;;;;;;4981466;28;20145;-74
2022/10/30 01:16:41;;;;;;;20.45;12.45;;;;;;;;;;4948520;28;20101;-74
2022/10/30 01:19:07;;;;;;;17.08;12.23;;;;;;;;;;4951058;28;20157;-74
2022/10/30 01:21:42;;;;;;;18.15;12.13;;;;;;;;;;4942421;28;20113;-74
2022/10/30 01:24:31;;;;;;;21.55;12.07;;;;;;;;;;4952413;28;20070;-74
2022/10/30 01:26:57;;;;;;;23.85;11.95;;;;;;;;;;4950293;28;20047;-74
2022/10/30 01:29:34;;;;;;;19.25;12.60;;;;;;;;;;4948504;28;20051;-74
2022/10/30 01:32:12;;;;;;;17.38;12.18;;;;;;;;;;4979596;28;20134;-74
2022/10/30 01:34:57;;;;;;;20.50;12.15;;;;;;;;;;4980030;28;20053;-74
2022/10/30 01:37:35;;;;;;;20.38;12.35;;;;;;;;;;4953173;28;20941;-74
2022/10/30 01:40:17;;;;;;;20.02;11.98;;;;;;;;;;4950395;28;20047;-74
2022/10/30 01:42:51;;;;;;;21.10;12.80;;;;;;;;;;4948539;28;20051;-74
2022/10/30 01:45:20;;;;;;;20.13;12.18;;;;;;;;;;4983084;28;20065;-74
2022/10/30 01:47:50;;;;;;;19.30;11.77;;;;;;;;;;4954191;28;20092;-74
2022/10/30 01:50:26;;;;;;;17.92;11.45;;;;;;;;;;4945743;28;20553;-75
2022/10/30 01:53:14;;;;;;;21.40;11.80;;;;;;;;;;4948726;28;20503;-74
2022/10/30 01:55:45;;;;;;;19.42;11.68;;;;;;;;;;4956466;28;20089;-74
2022/10/30 01:58:19;;;;;;;21.95;11.40;;;;;;;;;;4948825;28;20733;-74
2022/10/30 02:00:47;;;;;;;21.40;12.25;;;;;;;;;;4946235;28;20578;-74
2022/10/30 02:03:14;;;;;;;19.75;11.55;;;;;;;;;;4950553;28;20047;-74
2022/10/30 02:05:50;;;;;;;20.73;11.57;;;;;;;;;;4974576;28;20089;-74
2022/10/30 02:08:16;;;;;;;21.52;11.98;;;;;;;;;;4949903;28;20132;-75
2022/10/30 02:10:44;;;;;;;21.05;11.70;;;;;;;;;;4976696;28;20047;-74
2022/10/30 02:13:10;;;;;;;21.55;11.18;;;;;;;;;;4946420;28;20043;-74
2022/10/30 02:15:37;;;;;;;25.77;11.80;;;;;;;;;;4945694;28;20062;-74
2022/10/30 02:18:03;;;;;;;19.10;11.88;;;;;;;;;;4950841;28;20137;-74
2022/10/30 02:20:29;;;;;;;22.48;12.50;;;;;;;;;;4980532;28;20042;-74
2022/10/30 02:22:55;;;;;;;22.45;12.10;;;;;;;;;;4980959;28;20165;-74
2022/10/30 02:25:21;;;;;;;25.10;11.68;;;;;;;;;;4949309;28;20054;-74
2022/10/30 02:27:47;;;;;;;17.95;11.73;;;;;;;;;;4946237;28;20145;-74
2022/10/30 02:30:13;;;;;;;18.08;10.60;;;;;;;;;;4951231;28;20157;-74
2022/10/30 02:32:40;;;;;;;24.98;11.85;;;;;;;;;;4950384;28;20046;-74
2022/10/30 02:35:06;;;;;;;22.83;12.25;;;;;;;;;;4982930;28;20726;-74
2022/10/30 02:37:34;;;;;;;20.75;11.57;;;;;;;;;;4982224;28;20051;-74
2022/10/30 02:40:00;;;;;;;20.38;11.98;;;;;;;;;;4978900;28;20054;-75
2022/10/30 02:42:26;;;;;;;22.85;11.50;;;;;;;;;;4944243;28;20043;-74
2022/10/30 02:44:52;;;;;;;21.38;12.10;;;;;;;;;;4951164;28;20051;-74
2022/10/30 02:47:18;;;;;;;22.63;11.70;;;;;;;;;;4980264;28;20400;-74
2022/10/30 02:49:44;;;;;;;20.63;12.20;;;;;;;;;;4950626;28;20055;-74
2022/10/30 02:52:10;;;;;;;22.33;12.25;;;;;;;;;;4947468;28;20047;-74
2022/10/30 02:54:36;;;;;;;21.52;12.25;;;;;;;;;;4982653;28;20073;-74
2022/10/30 02:57:02;;;;;;;18.70;12.35;;;;;;;;;;4949641;28;20101;-74
2022/10/30 02:59:29;;;;;;;20.52;11.68;;;;;;;;;;4951987;28;20043;-74
2022/10/30 03:01:55;;;;;;;21.10;12.55;;;;;;;;;;4943891;28;20130;-74
2022/10/30 03:04:21;;;;;;;22.42;12.55;;;;;;;;;;4950141;28;20553;-74
2022/10/30 03:06:47;;;;;;;21.55;12.73;;;;;;;;;;4949994;28;20211;-74
2022/10/30 03:09:15;;;;;;;26.10;13.32;;;;;;;;;;4949305;28;20138;-74
2022/10/30 03:11:43;;;;;;;22.38;13.60;;;;;;;;;;4971835;28;20050;-74
2022/10/30 03:14:09;;;;;;;23.55;13.00;;;;;;;;;;4946349;28;20055;-74
2022/10/30 03:16:36;;;;;;;26.27;13.60;;;;;;;;;;4946757;28;20047;-74
2022/10/30 03:19:02;;;;;;;21.38;12.88;;;;;;;;;;4949350;28;20527;-74
2022/10/30 03:21:28;;;;;;;27.02;13.98;;;;;;;;;;4946967;28;20550;-74
2022/10/30 03:24:00;;;;;;;26.67;13.98;;;;;;;;;;4946708;28;20043;-74
2022/10/30 03:26:26;;;;;;;25.17;12.23;;;;;;;;;;4947459;28;20446;-74
2022/10/30 03:28:52;;;;;;;20.23;13.57;;;;;;;;;;4979649;28;20305;-74
2022/10/30 03:31:19;;;;;;;24.88;13.20;;;;;;;;;;4950263;28;20042;-74
2022/10/30 03:33:45;;;;;;;24.58;12.85;;;;;;;;;;4944982;28;20050;-74
2022/10/30 03:36:12;;;;;;;20.15;13.20;;;;;;;;;;4978591;28;20043;-74
2022/10/30 03:38:38;;;;;;;24.88;13.63;;;;;;;;;;4951553;28;20051;-74
2022/10/30 03:41:05;;;;;;;23.73;12.40;;;;;;;;;;4948120;28;20044;-74
2022/10/30 03:43:31;;;;;;;21.67;13.40;;;;;;;;;;4951378;28;20051;-74
2022/10/30 03:45:57;;;;;;;22.50;13.00;;;;;;;;;;4947436;28;20063;-75
2022/10/30 03:48:24;;;;;;;25.95;13.85;;;;;;;;;;4979110;28;20047;-75
2022/10/30 03:50:53;;;;;;;26.73;13.45;;;;;;;;;;4977524;28;20043;-74
2022/10/30 03:53:21;;;;;;;25.83;13.55;;;;;;;;;;4935341;28;20053;-74
2022/10/30 03:55:48;;;;;;;22.40;13.68;;;;;;;;;;4951218;28;20451;-74
2022/10/30 03:58:13;;;;;;;22.95;13.68;;;;;;;;;;4948037;28;20550;-74
2022/10/30 04:00:40;;;;;;;21.70;13.10;;;;;;;;;;4952258;28;20055;-74
2022/10/30 04:03:07;;;;;;;24.80;13.45;;;;;;;;;;4950828;28;20051;-74
2022/10/30 04:05:33;;;;;;;28.73;13.23;;;;;;;;;;4972110;28;20079;-74
2022/10/30 04:08:00;;;;;;;25.17;13.55;;;;;;;;;;4973308;28;20047;-74
2022/10/30 04:10:27;;;;;;;26.67;13.90;;;;;;;;;;4980394;28;20051;-74
2022/10/30 04:12:58;;;;;;;27.58;14.02;;;;;;;;;;4957225;28;20039;-74
2022/10/30 04:15:25;;;;;;;28.20;14.27;;;;;;;;;;4943552;28;20147;-74
2022/10/30 04:17:51;;;;;;;22.48;13.05;;;;;;;;;;4953500;28;20083;-74
2022/10/30 04:20:18;;;;;;;23.38;12.95;;;;;;;;;;4952820;28;20059;-74
2022/10/30 04:22:44;;;;;;;23.15;12.95;;;;;;;;;;4949900;28;20054;-74
2022/10/30 04:25:10;;;;;;;24.48;13.55;;;;;;;;;;4947379;28;20050;-74
2022/10/30 04:27:40;;;;;;;18.83;11.63;;;;;;;;;;4952827;28;20041;-74
2022/10/30 04:30:06;;;;;;;23.63;13.13;;;;;;;;;;4952069;28;20047;-74
2022/10/30 04:32:32;;;;;;;22.65;12.15;;;;;;;;;;4970085;28;20040;-74
2022/10/30 04:34:58;;;;;;;20.10;12.18;;;;;;;;;;4957380;28;20058;-74
2022/10/30 04:37:24;;;;;;;21.58;12.40;;;;;;;;;;4957392;28;20040;-74
2022/10/30 04:39:50;;;;;;;20.80;13.38;;;;;;;;;;4953163;28;20078;-74
2022/10/30 04:42:16;;;;;;;22.05;13.50;;;;;;;;;;4947658;28;20452;-74
2022/10/30 04:44:42;;;;;;;20.23;13.13;;;;;;;;;;4951451;28;20082;-74
2022/10/30 04:47:08;;;;;;;22.77;13.93;;;;;;;;;;4951512;28;20067;-74
2022/10/30 04:49:34;;;;;;;19.75;12.95;;;;;;;;;;4950074;28;20114;-74
2022/10/30 04:52:00;;;;;;;23.27;14.00;;;;;;;;;;4956769;28;20157;-74
2022/10/30 04:54:27;;;;;;;20.98;14.68;;;;;;;;;;4986305;28;20039;-74
2022/10/30 04:56:53;;;;;;;18.88;14.57;;;;;;;;;;4952080;28;20086;-74
2022/10/30 04:59:19;;;;;;;25.25;14.50;;;;;;;;;;4949450;28;20047;-74
2022/10/30 05:01:45;;;;;;;23.70;14.27;;;;;;;;;;4970371;28;20057;-74
2022/10/30 05:04:11;;;;;;;23.13;14.90;;;;;;;;;;4952198;28;20051;-74
2022/10/30 05:06:38;;;;;;;20.00;14.93;;;;;;;;;;4954876;28;20039;-74
2022/10/30 05:09:03;;;;;;;21.95;14.80;;;;;;;;;;4961460;28;20510;-74
2022/10/30 05:11:30;;;;;;;22.67;14.95;;;;;;;;;;4954095;28;20042;-74
2022/10/30 05:13:56;;;;;;;23.15;15.90;;;;;;;;;;4945601;28;20044;-74
2022/10/30 05:16:22;;;;;;;22.70;14.93;;;;;;;;;;4976155;28;20162;-74
2022/10/30 05:18:48;;;;;;;24.15;14.85;;;;;;;;;;4948104;28;20184;-74
2022/10/30 05:21:14;;;;;;;20.52;14.32;;;;;;;;;;4945394;28;20490;-74
2022/10/30 05:23:40;;;;;;;21.63;13.95;;;;;;;;;;4952720;28;20051;-74
2022/10/30 05:26:06;;;;;;;17.75;14.18;;;;;;;;;;4951249;28;20185;-74
2022/10/30 05:28:32;;;;;;;25.38;15.32;;;;;;;;;;4952734;28;20142;-74
2022/10/30 05:30:58;;;;;;;22.25;14.68;;;;;;;;;;4979842;28;20039;-74
2022/10/30 05:33:24;;;;;;;21.05;14.65;;;;;;;;;;4948523;28;20051;-74
2022/10/30 05:35:50;;;;;;;19.17;14.32;;;;;;;;;;4949716;28;20043;-74
2022/10/30 05:38:16;;;;;;;21.88;13.40;;;;;;;;;;4984345;28;20053;-74
2022/10/30 05:40:45;;;;;;;19.00;13.77;;;;;;;;;;4979340;28;20415;-74
2022/10/30 05:43:11;;;;;;;22.55;14.43;;;;;;;;;;4953135;28;20287;-74
2022/10/30 05:45:37;;;;;;;19.42;14.30;;;;;;;;;;4946918;28;20412;-74
2022/10/30 05:48:04;;;;;;;18.42;14.25;;;;;;;;;;4976695;28;20050;-74
2022/10/30 05:50:30;;;;;;;19.52;14.30;;;;;;;;;;4944790;28;20039;-74
2022/10/30 05:52:57;;;;;;;23.20;14.20;;;;;;;;;;4948309;28;20062;-74
2022/10/30 05:55:23;;;;;;;21.55;14.43;;;;;;;;;;4950172;28;20051;-74
2022/10/30 05:57:49;;;;;;;18.67;14.52;;;;;;;;;;4949771;28;20416;-74
2022/10/30 06:00:16;;;;;;;17.65;13.98;;;;;;;;;;4950930;28;20069;-74
2022/10/30 06:02:42;;;;;;;21.48;15.30;;;;;;;;;;4981998;28;20047;-74
2022/10/30 06:05:08;;;;;;;20.23;14.48;;;;;;;;;;4950197;28;20099;-74
2022/10/30 06:07:34;;;;;;;24.05;15.15;;;;;;;;;;4981473;28;20054;-74
2022/10/30 06:10:03;;;;;;;27.98;15.35;;;;;;;;;;4977853;28;20050;-74
2022/10/30 06:12:29;;;;;;;20.98;15.38;;;;;;;;;;4949586;28;20267;-74
2022/10/30 06:14:55;;;;;;;18.77;14.43;;;;;;;;;;4950015;28;21030;-74
2022/10/30 06:17:24;;;;;;;20.00;14.13;;;;;;;;;;4946154;28;20050;-74
2022/10/30 06:19:50;;;;;;;18.17;14.05;;;;;;;;;;4950664;28;20140;-74
2022/10/30 06:22:16;;;;;;;25.80;14.48;;;;;;;;;;4978074;28;20073;-74
2022/10/30 06:24:42;;;;;;;21.60;14.52;;;;;;;;;;4952379;28;20047;-74
2022/10/30 06:27:08;;;;;;;22.40;15.23;;;;;;;;;;4948738;28;20058;-74
2022/10/30 06:29:34;;;;;;;22.35;14.82;;;;;;;;;;4954044;28;20048;-74
2022/10/30 06:32:00;;;;;;;23.35;15.02;;;;;;;;;;4982610;28;20043;-74
2022/10/30 06:34:26;;;;;;;20.00;14.45;;;;;;;;;;4951315;28;20065;-74
2022/10/30 06:36:52;;;;;;;21.48;14.57;;;;;;;;;;4947168;28;20586;-74
2022/10/30 06:39:18;;;;;;;22.33;14.43;;;;;;;;;;4946381;28;20050;-74
2022/10/30 06:41:44;;;;;;;24.15;14.38;;;;;;;;;;4950722;28;20051;-74
2022/10/30 06:44:10;;;;;;;22.45;15.68;;;;;;;;;;4949654;28;20074;-74
2022/10/30 06:46:36;;;;;;;20.38;14.98;;;;;;;;;;4950613;28;20126;-74
2022/10/30 06:49:02;;;;;;;21.33;15.48;;;;;;;;;;4977719;28;20055;-74
2022/10/30 06:51:28;;;;;;;21.65;14.85;;;;;;;;;;4983596;28;20043;-74
2022/10/30 06:53:54;;;;;;;22.58;15.18;;;;;;;;;;4952198;28;20073;-74
2022/10/30 06:56:20;;;;;;;19.88;14.82;;;;;;;;;;4944970;28;22020;-74
2022/10/30 06:58:46;;;;;;;24.70;15.27;;;;;;;;;;4949683;28;20560;-74
2022/10/30 07:01:12;;;;;;;23.58;15.18;;;;;;;;;;4948996;28;20058;-74
2022/10/30 07:03:38;;;;;;;22.58;14.80;;;;;;;;;;4980666;28;20082;-74
2022/10/30 07:06:04;;;;;;;20.05;14.88;;;;;;;;;;4981206;28;20089;-74
2022/10/30 07:08:31;;;;;;;20.90;14.80;;;;;;;;;;4944564;28;20058;-74
2022/10/30 07:10:57;;;;;;;22.02;14.98;;;;;;;;;;4952189;28;20117;-74
2022/10/30 07:13:23;;;;;;;23.65;15.93;;;;;;;;;;4943701;28;20070;-74
2022/10/30 07:15:49;;;;;;;23.20;15.43;;;;;;;;;;4978532;28;20051;-74
2022/10/30 07:18:15;;;;;;;22.40;16.35;;;;;;;;;;4945944;28;20039;-74
2022/10/30 07:20:41;;;;;;;20.58;14.57;;;;;;;;;;4948579;28;20066;-74
2022/10/30 07:23:07;;;;;;;24.33;16.02;;;;;;;;;;4949970;28;20079;-74
2022/10/30 07:25:33;;;;;;;20.83;15.13;;;;;;;;;;4950750;28;20049;-75
2022/10/30 07:28:00;;;;;;;24.05;16.38;;;;;;;;;;4940565;28;20440;-74
2022/10/30 07:30:26;;;;;;;23.75;16.50;;;;;;;;;;4948732;28;20102;-74
2022/10/30 07:32:56;;;;;;;22.45;17.42;;;;;;;;;;4948654;28;20050;-74
2022/10/30 07:35:22;;;;;;;25.67;16.27;;;;;;;;;;4951181;28;20499;-74
2022/10/30 07:37:48;;;;;;;23.33;16.42;;;;;;;;;;4978262;28;20142;-73
2022/10/30 07:40:15;;;;;;;24.67;16.30;;;;;;;;;;4948505;28;20125;-73
2022/10/30 07:42:41;;;;;;;25.77;16.42;;;;;;;;;;4951220;28;20098;-74
2022/10/30 07:45:07;;;;;;;25.90;16.13;;;;;;;;;;4946385;28;20064;-77
2022/10/30 07:47:33;;;;;;;23.70;15.85;;;;;;;;;;4941716;28;20491;-76
2022/10/30 07:49:59;;;;;;;25.48;16.17;;;;;;;;;;4947652;28;20109;-75
2022/10/30 07:52:25;;;;;;;25.67;16.63;;;;;;;;;;4947584;28;20066;-75
2022/10/30 07:54:51;;;;;;;26.77;16.45;;;;;;;;;;4980096;28;20043;-75
2022/10/30 07:57:17;;;;;;;26.17;16.83;;;;;;;;;;4946767;28;20039;-75
2022/10/30 07:59:43;;;;;;;28.42;17.58;;;;;;;;;;4941304;29;20492;-76
2022/10/30 08:02:09;;;;;;;25.05;16.50;;;;;;;;;;4967986;28;20052;-79
2022/10/30 08:04:35;;;;;;;25.80;16.83;;;;;;;;;;4980266;28;20055;-75
2022/10/30 08:07:01;;;;;;;28.92;16.95;;;;;;;;;;4940125;28;20055;-76
2022/10/30 08:09:27;;;;;;;25.00;17.05;;;;;;;;;;4949419;28;20087;-74
2022/10/30 08:11:53;;;;;;;26.60;15.80;;;;;;;;;;4944811;28;20089;-74
2022/10/30 08:14:20;;;;;;;26.17;16.83;;;;;;;;;;4946959;28;20053;-74
2022/10/30 08:16:46;;;;;;;24.60;16.45;;;;;;;;;;4948551;28;20522;-74
2022/10/30 08:19:12;;;;;;;22.50;16.63;;;;;;;;;;4947092;28;20043;-74
2022/10/30 08:21:38;;;;;;;21.80;16.30;;;;;;;;;;4949716;28;20047;-75
2022/10/30 08:24:04;;;;;;;22.02;16.88;;;;;;;;;;4953170;28;20059;-76
2022/10/30 08:26:30;;;;;;;22.40;16.25;;;;;;;;;;4987064;28;20078;-76
2022/10/30 08:28:56;;;;;;;21.52;16.25;;;;;;;;;;4948461;28;21978;-76
2022/10/30 08:31:22;;;;;;;22.08;16.25;;;;;;;;;;4953877;28;20055;-76
2022/10/30 08:33:48;;;;;;;26.88;16.85;;;;;;;;;;4949518;28;20085;-74
2022/10/30 08:36:14;;;;;;;24.63;16.83;;;;;;;;;;4949921;28;20516;-74
2022/10/30 08:38:40;;;;;;;21.88;16.33;;;;;;;;;;4983916;28;20043;-73
2022/10/30 08:41:06;;;;;;;26.40;16.27;;;;;;;;;;4956123;28;20127;-76
2022/10/30 08:43:32;;;;;;;23.65;16.60;;;;;;;;;;4949830;28;20075;-75
2022/10/30 08:45:58;;;;;;;25.30;16.88;;;;;;;;;;4953572;28;20051;-74
2022/10/30 08:48:24;;;;;;;25.50;16.77;;;;;;;;;;4945777;28;20039;-73
2022/10/30 08:50:49;;;;;;;31.90;17.27;;;;;;;;;;4954778;28;20412;-73
2022/10/30 08:53:16;;;;;;;22.80;16.75;;;;;;;;;;4951774;28;20058;-74
2022/10/30 08:55:42;;;;;;;24.20;17.27;;;;;;;;;;4956219;28;20403;-74
2022/10/30 08:58:08;;;;;;;26.58;16.85;;;;;;;;;;4950754;28;20056;-75
2022/10/30 09:00:34;;;;;;;23.90;16.75;;;;;;;;;;4957433;28;20055;-73
2022/10/30 09:03:00;;;;;;;23.95;16.75;;;;;;;;;;4951987;28;20506;-74
2022/10/30 09:05:26;;;;;;;31.75;23.73;;;;;;;;;;4935977;28;20459;-74
2022/10/30 09:07:57;;;;;;;21.52;17.02;;;;;;;;;;4938323;28;20142;-74
2022/10/30 09:10:23;;;;;;;26.15;17.02;;;;;;;;;;4977564;28;20090;-74
2022/10/30 09:12:53;;;;;;;20.88;15.68;;;;;;;;;;4981227;28;20079;-74
2022/10/30 09:15:19;;;;;;;21.45;16.13;;;;;;;;;;4979675;28;20046;-73
2022/10/30 09:17:45;;;;;;;23.27;16.60;;;;;;;;;;4952611;28;20043;-74
2022/10/30 09:20:11;;;;;;;24.08;16.83;;;;;;;;;;4940396;28;20048;-74
2022/10/30 09:22:41;;;;;;;22.33;16.00;;;;;;;;;;4948124;28;20043;-74
2022/10/30 09:25:07;;;;;;;24.95;16.08;;;;;;;;;;4952798;28;20043;-74
2022/10/30 09:27:39;;;;;;;24.13;16.10;;;;;;;;;;4946144;29;20044;-74
2022/10/30 09:30:06;;;;;;;21.98;16.20;;;;;;;;;;4950681;28;20058;-74
2022/10/30 09:32:32;;;;;;;26.42;16.23;;;;;;;;;;4984083;28;20515;-74
2022/10/30 09:34:58;;;;;;;22.98;16.45;;;;;;;;;;4982573;28;20086;-74
2022/10/30 09:37:25;;;;;;;22.27;14.93;;;;;;;;;;4943896;28;20083;-74
2022/10/30 09:39:51;;;;;;;22.23;15.13;;;;;;;;;;4953340;28;20047;-74
2022/10/30 09:42:17;;;;;;;27.42;16.60;;;;;;;;;;4976342;28;20054;-74
2022/10/30 09:44:55;;;;;;;22.33;15.18;;;;;;;;;;4941959;28;20398;-74
2022/10/30 09:47:44;;;;;;;21.17;16.00;;;;;;;;;;4945400;28;20062;-74
2022/10/30 09:50:18;;;;;;;22.13;15.05;;;;;;;;;;4951008;28;20489;-74
2022/10/30 09:52:57;;;;;;;20.90;15.13;;;;;;;;;;4953000;29;20046;-74
2022/10/30 09:55:27;;;;;;;22.02;15.23;;;;;;;;;;4945332;28;20044;-74
2022/10/30 09:57:56;;;;;;;27.42;15.93;;;;;;;;;;4983776;28;20050;-74
2022/10/30 10:00:24;;;;;;;20.58;15.85;;;;;;;;;;4978284;28;20106;-74
2022/10/30 10:02:55;;;;;;;24.35;15.75;;;;;;;;;;4966810;28;20055;-74
2022/10/30 10:05:24;;;;;;;20.80;15.30;;;;;;;;;;4949529;28;20051;-74
2022/10/30 10:07:54;;;;;;;23.05;14.40;;;;;;;;;;4972822;28;20090;-74
2022/10/30 10:10:56;;;;;;;24.80;15.27;;;;;;;;;;4948832;28;20079;-74
2022/10/30 10:13:48;;;;;;;21.60;15.02;;;;;;;;;;4894138;29;20057;-74
2022/10/30 10:16:21;;;;;;;21.73;14.82;;;;;;;;;;4937405;28;20055;-74
2022/10/30 10:18:47;;;;;;;22.20;14.82;;;;;;;;;;4984835;28;20047;-74
2022/10/30 10:21:17;;;;;;;19.90;13.73;;;;;;;;;;4980986;28;20047;-74
2022/10/30 10:23:47;;;;;;;22.92;14.82;;;;;;;;;;4967503;28;20048;-74
2022/10/30 10:26:36;;;;;;;23.17;14.35;;;;;;;;;;4940142;28;20071;-74
2022/10/30 10:29:11;;;;;;;17.90;14.68;;;;;;;;;;4930262;28;20051;-74
2022/10/30 10:31:42;;;;;;;20.48;13.57;;;;;;;;;;4937789;28;20055;-74
2022/10/30 10:34:20;;;;;;;19.02;13.63;;;;;;;;;;4939998;28;20150;-74
2022/10/30 10:36:55;;;;;;;20.60;12.95;;;;;;;;;;4946783;28;20047;-74
2022/10/30 10:39:24;;;;;;;17.27;13.07;;;;;;;;;;4967589;28;20051;-74
2022/10/30 10:41:58;;;;;;;20.30;13.70;;;;;;;;;;4937067;28;20139;-75
2022/10/30 10:44:30;;;;;;;20.98;12.82;;;;;;;;;;4969220;28;20039;-74
2022/10/30 10:46:56;;;;;;;27.80;14.33;;;;;;;;;;4938993;28;20047;-75
2022/10/30 10:49:30;;;;;;;20.08;13.13;;;;;;;;;;4944659;28;20306;-74
2022/10/30 10:51:56;;;;;;;;;;;;;;;;;;4958259;28;20525;-74
2022/10/30 10:54:31;;;;;;;20.60;15.07;;;;;;;;;;4944501;28;19930;-74
2022/10/30 10:56:58;;;;;;;23.45;17.20;;;;;;;;;;4950873;28;20114;-76
2022/10/30 10:59:36;;;;;;;21.23;13.32;;;;;;;;;;4943632;28;20122;-78
2022/10/30 11:02:18;;;;;;;21.80;13.50;;;;;;;;;;4941218;28;20098;-74
2022/10/30 11:04:47;;;;;;;16.98;13.18;;;;;;;;;;4982153;28;20086;-77
2022/10/30 11:07:22;;;;;;;20.42;12.88;;;;;;;;;;4942607;28;20047;-77
2022/10/30 11:09:52;;;;;;;20.73;14.10;;;;;;;;;;4943363;28;20054;-78
2022/10/30 11:12:29;;;;;;;19.48;12.65;;;;;;;;;;4956839;28;20050;-79
2022/10/30 11:14:55;;;;;;;16.88;12.07;;;;;;;;;;4978898;28;20043;-79
2022/10/30 11:17:28;;;;;;;24.17;12.93;;;;;;;;;;4981625;28;20051;-78
2022/10/30 11:19:57;;;;;;;18.10;12.65;;;;;;;;;;4939013;28;20099;-75
2022/10/30 11:22:27;;;;;;;19.92;13.52;;;;;;;;;;4940049;28;20496;-75
2022/10/30 11:24:55;;;;;;;21.88;13.50;;;;;;;;;;4940898;28;20103;-75
2022/10/30 11:27:35;;;;;;;20.38;13.30;;;;;;;;;;4954016;28;20570;-74
2022/10/30 11:30:04;;;;;;;21.88;12.30;;;;;;;;;;4941568;28;20099;-74
2022/10/30 11:32:31;;;;;;;18.55;12.95;;;;;;;;;;4944272;28;20047;-74
2022/10/30 11:35:01;;;;;;;21.13;12.43;;;;;;;;;;4940539;28;20440;-74
2022/10/30 11:37:34;;;;;;;17.27;13.07;;;;;;;;;;4937379;28;20146;-74
2022/10/30 11:40:15;;;;;;;17.30;12.15;;;;;;;;;;4966590;28;20462;-75
2022/10/30 11:42:41;;;;;;;16.27;12.40;;;;;;;;;;4941263;28;20073;-76
2022/10/30 11:45:24;;;;;;;18.70;11.93;;;;;;;;;;4942553;28;20123;-77
2022/10/30 11:47:50;;;;;;;21.23;13.03;;;;;;;;;;4943370;28;20460;-74
2022/10/30 11:50:19;;;;;;;17.92;12.50;;;;;;;;;;4939308;28;20322;-74
2022/10/30 11:52:45;;;;;;;19.08;12.27;;;;;;;;;;4935741;28;20061;-74
2022/10/30 11:55:27;;;;;;;17.10;12.80;;;;;;;;;;4941854;28;20042;-80
2022/10/30 11:57:57;;;;;;;13.50;10.70;;;;;;;;;;4978156;28;20050;-79
2022/10/30 12:00:27;;;;;;;16.58;11.05;;;;;;;;;;4937650;28;20113;-77
2022/10/30 12:02:59;;;;;;;16.40;11.50;;;;;;;;;;4933834;29;20048;-79
2022/10/30 12:05:25;;;;;;;21.50;12.77;;;;;;;;;;4943987;28;20051;-78
2022/10/30 12:07:51;;;;;;;15.70;12.40;;;;;;;;;;4968690;28;20408;-79
2022/10/30 12:10:28;;;;;;;17.02;11.93;;;;;;;;;;4945092;28;20043;-78
2022/10/30 12:12:54;;;;;;;19.42;12.00;;;;;;;;;;4940519;28;20054;-79
2022/10/30 12:15:23;;;;;;;18.98;11.52;;;;;;;;;;4944616;28;20047;-74
2022/10/30 12:18:02;;;;;;;18.48;12.60;;;;;;;;;;4976315;28;20055;-75
2022/10/30 12:20:29;;;;;;;20.13;12.82;;;;;;;;;;4943906;28;20114;-75
2022/10/30 12:22:55;;;;;;;19.52;11.85;;;;;;;;;;4948722;28;20047;-75
2022/10/30 12:25:31;;;;;;;17.90;12.60;;;;;;;;;;4947375;29;20042;-75
2022/10/30 12:28:04;;;;;;;18.33;12.02;;;;;;;;;;4952417;29;20051;-76
2022/10/30 12:30:30;;;;;;;;;;;;;;;;;;4946435;29;20494;-75
2022/10/30 12:33:03;;;;;;;13.80;11.70;;;;;;;;;;4944681;28;20268;-76
2022/10/30 12:35:38;;;;;;;14.35;11.95;;;;;;;;;;4943945;29;20047;-76
2022/10/30 12:38:06;;;;;;;17.02;11.63;;;;;;;;;;4964175;28;20052;-76
2022/10/30 12:40:36;;;;;;;18.50;11.93;;;;;;;;;;4941332;29;20117;-75
2022/10/30 12:43:02;;;;;;;15.60;11.10;;;;;;;;;;4950529;29;20058;-75
2022/10/30 12:45:31;;;;;;;17.48;10.57;;;;;;;;;;4948662;29;20403;-75
2022/10/30 12:48:01;;;;;;;17.75;10.57;;;;;;;;;;4951808;29;20094;-76
2022/10/30 12:50:48;;;;;;;15.25;10.02;;;;;;;;;;4939962;29;20044;-76
2022/10/30 12:53:28;;;;;;;21.40;17.35;;;;;;;;;;4944359;29;20122;-75
2022/10/30 12:55:56;;;;;;;19.50;11.70;;;;;;;;;;4944280;29;20049;-75
2022/10/30 12:58:40;;;;;;;16.98;9.77;;;;;;;;;;4952196;29;20058;-75
2022/10/30 13:01:12;;;;;;;16.48;8.95;;;;;;;;;;4948544;29;20141;-76
2022/10/30 13:03:45;;;;;;;16.45;9.68;;;;;;;;;;4940921;29;20047;-75
2022/10/30 13:06:15;;;;;;;16.70;9.35;;;;;;;;;;4936711;29;20110;-75
2022/10/30 13:08:46;;;;;;;15.15;9.82;;;;;;;;;;4942481;28;20047;-75
2022/10/30 13:11:12;;;;;;;14.50;9.25;;;;;;;;;;4946898;29;20047;-75
2022/10/30 13:13:43;;;;;;;14.63;9.77;;;;;;;;;;4980283;28;20047;-76
2022/10/30 13:16:15;;;;;;;17.23;10.25;;;;;;;;;;4978326;28;20062;-75
2022/10/30 13:18:41;;;;;;;14.30;9.63;;;;;;;;;;4936851;29;20047;-75
2022/10/30 13:21:20;;;;;;;18.13;9.50;;;;;;;;;;4941263;28;20054;-75
2022/10/30 13:23:59;;;;;;;14.93;9.82;;;;;;;;;;4987836;28;20047;-76
2022/10/30 13:26:30;;;;;;;15.85;9.68;;;;;;;;;;4984657;28;20058;-75
2022/10/30 13:29:15;;;;;;;14.90;9.05;;;;;;;;;;4949190;28;20054;-76
2022/10/30 13:31:44;;;;;;;15.27;9.50;;;;;;;;;;4947556;28;20055;-76
2022/10/30 13:34:26;;;;;;;14.15;8.77;;;;;;;;;;4952990;28;20043;-76
2022/10/30 13:37:07;;;;;;;15.60;10.60;;;;;;;;;;4953818;28;20154;-76
2022/10/30 13:39:37;;;;;;;15.63;10.02;;;;;;;;;;4946981;29;20052;-76
2022/10/30 13:42:17;;;;;;;14.88;10.40;;;;;;;;;;4949717;28;20043;-76
2022/10/30 13:44:49;;;;;;;17.67;10.50;;;;;;;;;;4955061;29;20496;-76
2022/10/30 13:47:32;;;;;;;18.17;10.15;;;;;;;;;;4944679;28;20056;-76
2022/10/30 13:50:16;;;;;;;19.13;10.02;;;;;;;;;;4946061;28;20453;-76
2022/10/30 13:52:45;;;;;;;15.43;9.95;;;;;;;;;;4953741;28;20083;-75
2022/10/30 13:55:20;;;;;;;18.52;10.00;;;;;;;;;;4986509;28;20078;-75
2022/10/30 13:57:52;;;;;;;26.05;19.13;;;;;;;;;;4970270;28;20044;-75
2022/10/30 14:00:20;;;;;;;22.83;17.55;;;;;;;;;;4934724;29;20055;-76
2022/10/30 14:02:55;;;;;;;17.23;10.32;;;;;;;;;;4947737;28;20043;-76
2022/10/30 14:05:40;;;;;;;14.93;9.70;;;;;;;;;;4938222;29;20075;-75
2022/10/30 14:08:30;;;;;;;14.68;9.93;;;;;;;;;;4953570;28;20121;-77
2022/10/30 14:10:57;;;;;;;16.45;9.60;;;;;;;;;;4935367;28;20131;-75
2022/10/30 14:13:44;;;;;;;15.13;10.15;;;;;;;;;;4949329;29;20039;-75
2022/10/30 14:16:30;;;;;;;15.55;10.05;;;;;;;;;;4935328;28;20055;-75
2022/10/30 14:19:00;;;;;;;15.52;9.70;;;;;;;;;;4950013;28;20074;-75
2022/10/30 14:21:29;;;;;;;13.98;9.18;;;;;;;;;;4937434;28;20047;-76
2022/10/30 14:24:10;;;;;;;16.55;9.40;;;;;;;;;;4951463;28;20098;-75
2022/10/30 14:26:36;;;;;;;16.30;9.50;;;;;;;;;;4939258;28;20134;-75
2022/10/30 14:29:25;;;;;;;15.70;9.77;;;;;;;;;;4954585;28;20137;-75